Time;durP1;ratioP1;P1;durP2;ratioP2;P2;SDS_P1;SDS_P2;PMS_P1;PMS_P2;Temp;Humidity;BMP_temperature;BMP_pressure;BME280_temperature;BME280_humidity;BME280_pressure;Samples;Min_cycle;Max_cycle;Signal;HPM_P1;HPM_P2
2023/04/29 00:00:51;;;;;;;39.22;27.60;;;10.00;99.90;;;;;;5048954;28;20072;-81
2023/04/29 00:03:18;;;;;;;32.88;28.08;;;9.90;99.90;;;;;;5044648;28;20515;-81
2023/04/29 00:05:44;;;;;;;36.78;26.70;;;10.00;99.90;;;;;;5046671;28;20053;-81
2023/04/29 00:08:10;;;;;;;37.80;28.30;;;9.90;99.90;;;;;;5047846;28;20044;-81
2023/04/29 00:10:36;;;;;;;37.80;28.65;;;9.90;99.90;;;;;;5049404;28;20087;-81
2023/04/29 00:13:02;;;;;;;37.10;27.73;;;9.90;99.90;;;;;;5046757;28;20807;-81
2023/04/29 00:15:28;;;;;;;37.25;27.52;;;9.90;99.90;;;;;;5043531;28;20124;-81
2023/04/29 00:17:54;;;;;;;40.65;27.13;;;9.90;99.90;;;;;;5044528;28;20045;-81
2023/04/29 00:20:20;;;;;;;37.95;26.30;;;9.80;99.90;;;;;;5046471;28;20053;-81
2023/04/29 00:22:46;;;;;;;35.05;24.95;;;9.80;99.90;;;;;;5051931;28;20042;-82
2023/04/29 00:25:11;;;;;;;31.13;25.35;;;9.80;99.90;;;;;;5047375;28;20037;-81
2023/04/29 00:27:38;;;;;;;34.40;23.88;;;9.80;99.90;;;;;;5045778;28;20041;-81
2023/04/29 00:30:06;;;;;;;34.17;27.33;;;9.80;99.90;;;;;;5046121;28;20491;-81
2023/04/29 00:32:31;;;;;;;34.75;25.73;;;9.80;99.90;;;;;;5046100;28;20484;-81
2023/04/29 00:34:57;;;;;;;34.42;25.50;;;9.80;99.90;;;;;;5048190;28;20045;-81
2023/04/29 00:37:22;;;;;;;32.22;24.80;;;9.70;99.90;;;;;;5043019;28;20040;-81
2023/04/29 00:39:48;;;;;;;35.83;25.63;;;9.70;99.90;;;;;;5042965;28;20049;-81
2023/04/29 00:42:14;;;;;;;32.45;24.38;;;9.70;99.90;;;;;;5047548;28;20128;-81
2023/04/29 00:44:40;;;;;;;31.58;24.38;;;9.70;99.90;;;;;;5044588;28;20583;-81
2023/04/29 00:47:10;;;;;;;30.30;24.85;;;9.70;99.90;;;;;;5044350;28;20072;-81
2023/04/29 00:49:39;;;;;;;36.53;28.13;;;9.60;99.90;;;;;;5047392;28;20058;-81
2023/04/29 00:52:07;;;;;;;33.97;25.58;;;9.60;99.90;;;;;;5044475;28;20042;-81
2023/04/29 00:54:34;;;;;;;36.67;26.42;;;9.60;99.90;;;;;;5057385;28;20052;-81
2023/04/29 00:57:01;;;;;;;37.60;27.38;;;9.70;99.90;;;;;;5043715;28;20055;-81
2023/04/29 00:59:31;;;;;;;42.75;27.95;;;9.60;99.90;;;;;;5044460;28;20047;-81
2023/04/29 01:01:59;;;;;;;37.83;27.05;;;9.70;99.90;;;;;;5041127;28;20148;-81
2023/04/29 01:04:25;;;;;;;39.33;29.50;;;9.60;99.90;;;;;;5044906;28;20069;-81
2023/04/29 01:07:14;;;;;;;41.58;28.52;;;9.70;99.90;;;;;;5044127;28;20071;-81
2023/04/29 01:10:18;;;;;;;41.65;28.55;;;9.60;99.90;;;;;;5047193;28;20041;-81
2023/04/29 01:12:53;;;;;;;38.00;27.35;;;9.60;99.90;;;;;;5045507;28;20045;-81
2023/04/29 01:15:47;;;;;;;41.50;29.37;;;9.60;99.90;;;;;;5044638;28;20057;-81
2023/04/29 01:18:25;;;;;;;39.40;27.45;;;9.60;99.90;;;;;;5043852;28;20091;-81
2023/04/29 01:20:51;;;;;;;37.53;28.42;;;9.60;99.90;;;;;;5044736;28;20377;-81
2023/04/29 01:23:17;;;;;;;42.03;29.15;;;9.60;99.90;;;;;;5044299;28;20041;-81
2023/04/29 01:25:42;;;;;;;40.17;28.90;;;9.60;99.90;;;;;;5045223;28;20064;-81
2023/04/29 01:28:27;;;;;;;35.15;27.27;;;9.60;99.90;;;;;;5042865;28;20048;-81
2023/04/29 01:31:10;;;;;;;41.15;26.50;;;9.60;99.90;;;;;;5042031;28;20041;-81
2023/04/29 01:34:08;;;;;;;39.90;25.45;;;9.60;99.90;;;;;;5077530;28;20041;-80
2023/04/29 01:37:09;;;;;;;33.63;26.10;;;9.60;99.90;;;;;;5057741;28;20136;-81
2023/04/29 01:40:04;;;;;;;33.65;26.13;;;9.50;99.90;;;;;;5044929;28;20037;-80
2023/04/29 01:43:03;;;;;;;41.38;26.75;;;9.50;99.90;;;;;;5041707;28;20437;-81
2023/04/29 01:45:31;;;;;;;41.60;25.13;;;9.60;99.90;;;;;;5041636;28;20056;-81
2023/04/29 01:47:58;;;;;;;33.53;24.42;;;9.60;99.90;;;;;;5042672;28;20407;-81
2023/04/29 01:50:23;;;;;;;36.78;24.67;;;9.60;99.90;;;;;;5043344;28;20430;-81
2023/04/29 01:52:49;;;;;;;31.88;24.50;;;9.50;99.90;;;;;;5030172;28;20121;-81
2023/04/29 01:55:15;;;;;;;35.35;22.88;;;9.60;99.90;;;;;;5058581;28;20049;-81
2023/04/29 01:57:41;;;;;;;32.40;23.20;;;9.50;99.90;;;;;;5040630;28;20041;-81
2023/04/29 02:00:07;;;;;;;27.13;22.15;;;9.50;99.90;;;;;;5040928;28;20591;-81
2023/04/29 02:02:33;;;;;;;26.95;21.88;;;9.50;99.90;;;;;;5043231;28;20086;-82
2023/04/29 02:04:59;;;;;;;26.52;21.45;;;9.50;99.90;;;;;;5039856;28;20127;-81
2023/04/29 02:07:24;;;;;;;26.13;19.52;;;9.50;99.90;;;;;;5038996;28;20055;-81
2023/04/29 02:09:50;;;;;;;26.55;20.65;;;9.40;99.90;;;;;;5040149;28;20541;-81
2023/04/29 02:12:16;;;;;;;25.75;20.67;;;9.50;99.90;;;;;;5049499;28;20440;-81
2023/04/29 02:14:41;;;;;;;28.98;20.27;;;9.40;99.90;;;;;;5041627;28;20219;-81
2023/04/29 02:17:07;;;;;;;29.33;19.70;;;9.40;99.90;;;;;;5041857;28;20049;-80
2023/04/29 02:19:32;;;;;;;29.17;19.50;;;9.40;99.90;;;;;;5042840;28;20045;-81
2023/04/29 02:21:58;;;;;;;27.50;19.60;;;9.40;99.90;;;;;;5034977;28;20060;-80
2023/04/29 02:24:23;;;;;;;24.38;20.08;;;9.40;99.90;;;;;;5041732;28;20051;-81
2023/04/29 02:26:49;;;;;;;25.65;19.70;;;9.40;99.90;;;;;;5047849;28;20515;-81
2023/04/29 02:29:14;;;;;;;25.30;19.10;;;9.40;99.90;;;;;;5075095;28;20073;-81
2023/04/29 02:31:40;;;;;;;24.60;18.67;;;9.40;99.90;;;;;;5041245;28;20084;-80
2023/04/29 02:34:05;;;;;;;25.70;18.92;;;9.40;99.90;;;;;;5040479;28;20045;-81
2023/04/29 02:36:31;;;;;;;26.30;20.00;;;9.40;99.90;;;;;;5040220;28;20048;-80
2023/04/29 02:38:56;;;;;;;27.63;19.13;;;9.40;99.90;;;;;;5041436;28;20103;-81
2023/04/29 02:41:22;;;;;;;25.85;19.17;;;9.40;99.90;;;;;;5038600;28;20037;-81
2023/04/29 02:43:48;;;;;;;26.30;20.20;;;9.40;99.90;;;;;;5042857;28;20084;-81
2023/04/29 02:46:15;;;;;;;32.90;20.08;;;9.50;99.90;;;;;;5039124;28;20052;-81
2023/04/29 02:48:41;;;;;;;25.05;18.77;;;9.40;99.90;;;;;;5044326;28;20044;-80
2023/04/29 02:51:06;;;;;;;27.02;18.83;;;9.40;99.90;;;;;;5039676;28;20068;-80
2023/04/29 02:53:32;;;;;;;31.73;17.98;;;9.40;99.90;;;;;;5040514;28;20536;-80
2023/04/29 02:55:58;;;;;;;24.20;18.70;;;9.40;99.90;;;;;;5040718;28;20064;-80
2023/04/29 02:58:23;;;;;;;27.52;18.70;;;9.40;99.90;;;;;;5042442;28;20492;-81
2023/04/29 03:00:49;;;;;;;26.80;19.05;;;9.40;99.90;;;;;;5040929;28;20102;-81
2023/04/29 03:03:15;;;;;;;27.48;18.85;;;9.40;99.90;;;;;;5039922;28;20041;-81
2023/04/29 03:05:40;;;;;;;27.30;19.52;;;9.40;99.90;;;;;;5039325;28;20055;-81
2023/04/29 03:08:06;;;;;;;25.48;20.05;;;9.40;99.90;;;;;;5042052;28;20080;-80
2023/04/29 03:10:32;;;;;;;24.20;18.50;;;9.40;99.90;;;;;;5041301;28;20095;-81
2023/04/29 03:12:57;;;;;;;23.60;18.75;;;9.40;99.90;;;;;;5041970;28;20033;-80
2023/04/29 03:15:23;;;;;;;27.83;19.77;;;9.30;99.90;;;;;;5042821;28;20091;-80
2023/04/29 03:17:48;;;;;;;24.02;18.85;;;9.40;99.90;;;;;;5042433;28;20400;-81
2023/04/29 03:20:14;;;;;;;26.75;19.17;;;9.40;99.90;;;;;;5039401;28;20124;-80
2023/04/29 03:22:39;;;;;;;26.02;19.27;;;9.30;99.90;;;;;;5041219;28;20128;-80
2023/04/29 03:25:05;;;;;;;25.80;17.98;;;9.30;99.90;;;;;;5049678;28;20052;-80
2023/04/29 03:27:31;;;;;;;24.08;19.08;;;9.30;99.90;;;;;;5041793;28;20551;-80
2023/04/29 03:29:57;;;;;;;27.35;18.80;;;9.30;99.90;;;;;;5044479;28;20136;-81
2023/04/29 03:32:23;;;;;;;28.65;19.88;;;9.30;99.90;;;;;;5041110;28;20088;-81
2023/04/29 03:34:48;;;;;;;28.67;18.92;;;9.30;99.90;;;;;;5044088;28;20053;-81
2023/04/29 03:37:15;;;;;;;23.73;19.38;;;9.30;99.90;;;;;;5040316;28;20486;-81
2023/04/29 03:39:41;;;;;;;28.02;20.15;;;9.20;99.90;;;;;;5048511;28;20052;-81
2023/04/29 03:42:07;;;;;;;27.67;19.35;;;9.20;99.90;;;;;;5043926;28;20044;-81
2023/04/29 03:44:33;;;;;;;27.27;19.55;;;9.20;99.90;;;;;;5044067;28;20064;-81
2023/04/29 03:46:58;;;;;;;29.48;22.00;;;9.20;99.90;;;;;;5044699;28;20048;-81
2023/04/29 03:49:24;;;;;;;28.38;21.00;;;9.20;99.90;;;;;;5043539;28;20045;-81
2023/04/29 03:51:50;;;;;;;28.55;21.40;;;9.10;99.90;;;;;;5040619;28;20068;-81
2023/04/29 03:54:15;;;;;;;27.95;21.23;;;9.20;99.90;;;;;;5043552;28;20040;-81
2023/04/29 03:56:42;;;;;;;34.72;22.30;;;9.10;99.90;;;;;;5040434;28;20033;-81
2023/04/29 03:59:07;;;;;;;28.42;21.45;;;9.10;99.90;;;;;;5041336;28;20562;-81
2023/04/29 04:01:33;;;;;;;31.98;23.55;;;9.10;99.90;;;;;;5040402;28;20042;-81
2023/04/29 04:03:59;;;;;;;31.13;19.90;;;9.10;99.90;;;;;;5041247;28;20048;-80
2023/04/29 04:06:25;;;;;;;28.15;20.30;;;9.10;99.90;;;;;;5039338;28;20063;-81
2023/04/29 04:08:50;;;;;;;26.25;19.95;;;9.10;99.90;;;;;;5043475;28;20078;-81
2023/04/29 04:11:16;;;;;;;29.08;20.52;;;9.00;99.90;;;;;;5042318;28;20049;-81
2023/04/29 04:13:42;;;;;;;23.92;19.52;;;9.00;99.90;;;;;;5044951;28;20416;-81
2023/04/29 04:16:09;;;;;;;28.10;21.02;;;9.10;99.90;;;;;;5041322;28;20041;-81
2023/04/29 04:18:38;;;;;;;30.95;20.73;;;9.10;99.90;;;;;;5041045;28;20044;-81
2023/04/29 04:21:08;;;;;;;30.73;21.05;;;9.10;99.90;;;;;;5044538;28;20087;-81
2023/04/29 04:23:34;;;;;;;27.63;19.88;;;9.10;99.90;;;;;;5038598;28;20044;-80
2023/04/29 04:26:00;;;;;;;25.73;19.35;;;9.10;99.90;;;;;;5041375;28;20041;-80
2023/04/29 04:28:25;;;;;;;28.30;19.98;;;9.10;99.90;;;;;;5041078;28;20084;-81
2023/04/29 04:30:51;;;;;;;26.23;18.75;;;9.00;99.90;;;;;;5042823;28;20079;-81
2023/04/29 04:33:17;;;;;;;24.58;17.90;;;9.00;99.90;;;;;;5043376;28;20335;-81
2023/04/29 04:35:42;;;;;;;27.75;17.95;;;9.00;99.90;;;;;;5043746;28;20041;-80
2023/04/29 04:38:10;;;;;;;24.23;17.50;;;9.10;99.90;;;;;;5042160;28;20032;-81
2023/04/29 04:40:36;;;;;;;28.00;18.30;;;9.10;99.90;;;;;;5040332;28;20052;-81
2023/04/29 04:43:01;;;;;;;24.65;16.27;;;9.10;99.90;;;;;;5048740;28;20230;-81
2023/04/29 04:45:30;;;;;;;22.48;16.95;;;9.00;99.90;;;;;;5046194;28;20100;-81
2023/04/29 04:47:55;;;;;;;25.08;17.95;;;9.00;99.90;;;;;;5045087;28;20053;-81
2023/04/29 04:50:21;;;;;;;21.50;16.42;;;9.00;99.90;;;;;;5056652;28;20440;-81
2023/04/29 04:52:47;;;;;;;28.90;17.42;;;9.00;99.90;;;;;;5046170;28;20179;-81
2023/04/29 04:55:12;;;;;;;23.77;17.23;;;9.10;99.90;;;;;;5048135;28;20134;-80
2023/04/29 04:57:38;;;;;;;23.40;16.75;;;9.00;99.90;;;;;;5046241;28;20057;-80
2023/04/29 05:00:04;;;;;;;25.33;16.73;;;9.00;99.90;;;;;;5042799;28;20056;-81
2023/04/29 05:02:29;;;;;;;24.00;16.63;;;9.00;99.90;;;;;;5044079;28;20045;-81
2023/04/29 05:04:55;;;;;;;27.80;16.23;;;9.10;99.90;;;;;;5043792;28;20041;-81
2023/04/29 05:07:21;;;;;;;26.63;15.48;;;9.10;99.90;;;;;;5045314;28;20399;-81
2023/04/29 05:09:46;;;;;;;24.63;16.00;;;9.10;99.90;;;;;;5043537;28;20510;-81
2023/04/29 05:12:12;;;;;;;26.55;16.27;;;9.10;99.90;;;;;;5045059;28;20891;-81
2023/04/29 05:14:37;;;;;;;23.15;16.20;;;9.10;99.90;;;;;;5052447;28;20564;-81
2023/04/29 05:17:03;;;;;;;27.23;16.73;;;9.20;99.90;;;;;;5047268;28;20475;-81
2023/04/29 05:19:28;;;;;;;22.95;15.85;;;9.20;99.90;;;;;;5043827;28;20488;-81
2023/04/29 05:21:54;;;;;;;27.30;15.07;;;9.20;99.90;;;;;;5044336;28;20422;-81
2023/04/29 05:24:20;;;;;;;25.65;15.63;;;9.20;99.90;;;;;;5046955;28;20045;-81
2023/04/29 05:26:45;;;;;;;27.35;14.55;;;9.20;99.90;;;;;;5044018;28;20045;-81
2023/04/29 05:29:11;;;;;;;22.73;14.25;;;9.20;99.90;;;;;;5047110;28;20045;-81
2023/04/29 05:31:37;;;;;;;21.50;13.63;;;9.20;99.90;;;;;;5042085;28;20033;-80
2023/04/29 05:34:04;;;;;;;21.80;13.50;;;9.20;99.90;;;;;;5044730;28;20045;-80
2023/04/29 05:36:30;;;;;;;20.58;14.05;;;9.20;99.90;;;;;;5047301;28;20120;-81
2023/04/29 05:38:56;;;;;;;24.77;13.80;;;9.20;99.90;;;;;;5042357;28;20048;-82
2023/04/29 05:41:23;;;;;;;18.13;12.80;;;9.20;99.90;;;;;;5042845;28;20040;-81
2023/04/29 05:43:49;;;;;;;20.20;13.27;;;9.20;99.90;;;;;;5044903;28;20514;-81
2023/04/29 05:46:15;;;;;;;20.35;12.55;;;9.20;99.90;;;;;;5044093;28;20495;-81
2023/04/29 05:48:41;;;;;;;19.63;12.65;;;9.20;99.90;;;;;;5040989;28;20127;-81
2023/04/29 05:51:06;;;;;;;19.83;12.38;;;9.30;99.90;;;;;;5039855;28;20168;-82
2023/04/29 05:53:32;;;;;;;18.30;11.93;;;9.30;99.90;;;;;;5041787;28;20553;-81
2023/04/29 05:55:58;;;;;;;18.48;12.15;;;9.30;99.90;;;;;;5043579;28;20071;-81
2023/04/29 05:58:24;;;;;;;18.73;11.75;;;9.30;99.90;;;;;;5040643;28;20492;-82
2023/04/29 06:00:50;;;;;;;16.27;11.30;;;9.40;99.90;;;;;;5038675;28;20052;-80
2023/04/29 06:03:16;;;;;;;17.50;11.63;;;9.40;99.90;;;;;;5037784;28;20511;-81
2023/04/29 06:05:41;;;;;;;17.38;11.20;;;9.40;99.90;;;;;;5039586;28;20041;-82
2023/04/29 06:08:07;;;;;;;15.75;11.10;;;9.50;99.90;;;;;;5054420;28;20106;-82
2023/04/29 06:10:33;;;;;;;18.05;10.88;;;9.50;99.90;;;;;;5073590;28;20045;-82
2023/04/29 06:12:59;;;;;;;15.10;11.35;;;9.50;99.90;;;;;;5039642;28;20043;-81
2023/04/29 06:15:24;;;;;;;14.80;9.90;;;9.60;99.90;;;;;;5039365;28;20037;-82
2023/04/29 06:17:50;;;;;;;19.50;11.07;;;9.70;99.90;;;;;;5042692;28;20036;-82
2023/04/29 06:20:16;;;;;;;19.05;11.43;;;9.70;99.90;;;;;;5040968;28;20049;-81
2023/04/29 06:22:42;;;;;;;17.63;9.40;;;9.70;99.90;;;;;;5041526;28;20132;-82
2023/04/29 06:25:08;;;;;;;13.77;10.23;;;9.70;99.90;;;;;;5046580;28;20132;-82
2023/04/29 06:27:33;;;;;;;16.95;10.00;;;9.70;99.90;;;;;;5040772;28;20045;-83
2023/04/29 06:29:59;;;;;;;13.55;10.13;;;9.80;99.90;;;;;;5041168;28;20068;-82
2023/04/29 06:32:25;;;;;;;13.23;9.30;;;9.80;99.90;;;;;;5038427;28;20090;-82
2023/04/29 06:34:50;;;;;;;15.13;10.30;;;9.90;99.90;;;;;;5041040;28;20045;-82
2023/04/29 06:37:16;;;;;;;14.05;10.00;;;10.00;99.90;;;;;;5075022;28;20064;-82
2023/04/29 06:39:42;;;;;;;13.43;9.80;;;10.00;99.90;;;;;;5048322;28;21698;-82
2023/04/29 06:42:07;;;;;;;12.23;8.73;;;10.10;99.90;;;;;;5044791;28;20142;-80
2023/04/29 06:44:33;;;;;;;12.82;10.13;;;10.20;99.90;;;;;;5036291;28;20522;-81
2023/04/29 06:46:58;;;;;;;13.80;8.65;;;10.40;99.90;;;;;;5041050;28;20041;-83
2023/04/29 06:49:24;;;;;;;13.10;9.32;;;10.40;99.90;;;;;;5047686;28;20049;-81
2023/04/29 06:51:49;;;;;;;12.85;8.82;;;10.50;99.90;;;;;;5039777;28;20059;-80
2023/04/29 06:54:15;;;;;;;12.55;9.57;;;10.60;99.90;;;;;;5038185;28;20501;-81
2023/04/29 06:56:41;;;;;;;13.20;8.98;;;10.80;99.90;;;;;;5036378;28;20040;-81
2023/04/29 06:59:07;;;;;;;13.10;8.65;;;11.10;99.90;;;;;;5038623;28;20264;-81
2023/04/29 07:01:32;;;;;;;12.35;8.25;;;11.40;99.90;;;;;;5038457;28;20085;-81
2023/04/29 07:03:58;;;;;;;11.60;8.60;;;11.70;99.90;;;;;;5040337;28;20045;-81
2023/04/29 07:06:24;;;;;;;12.43;8.38;;;11.90;99.90;;;;;;5036712;28;20040;-81
2023/04/29 07:08:51;;;;;;;9.77;8.25;;;12.00;99.90;;;;;;5040709;28;20080;-81
2023/04/29 07:11:16;;;;;;;10.05;8.00;;;12.40;99.90;;;;;;5042858;28;20606;-81
2023/04/29 07:13:42;;;;;;;10.10;7.80;;;12.90;99.90;;;;;;5040015;28;20041;-81
2023/04/29 07:16:19;;;;;;;10.23;7.07;;;13.10;99.90;;;;;;5038662;28;20033;-80
2023/04/29 07:18:44;;;;;;;11.10;7.53;;;13.20;99.90;;;;;;5043677;28;20037;-81
2023/04/29 07:21:10;;;;;;;11.68;7.25;;;13.40;99.90;;;;;;5042723;28;20119;-80
2023/04/29 07:23:36;;;;;;;12.27;7.88;;;13.70;99.90;;;;;;5039877;28;20049;-81
2023/04/29 07:26:28;;;;;;;10.88;7.20;;;14.00;99.90;;;;;;5040050;28;20044;-81
2023/04/29 07:28:53;;;;;;;8.40;7.25;;;14.20;99.90;;;;;;5038212;28;20396;-81
2023/04/29 07:31:19;;;;;;;9.02;6.88;;;14.40;99.90;;;;;;5040037;28;20056;-81
2023/04/29 07:33:48;;;;;;;7.45;6.38;;;14.70;99.90;;;;;;5039832;28;20053;-81
2023/04/29 07:36:13;;;;;;;11.73;7.05;;;15.10;99.90;;;;;;5039651;28;20361;-81
2023/04/29 07:38:39;;;;;;;11.25;7.38;;;15.40;99.90;;;;;;5041979;28;20044;-81
2023/04/29 07:41:04;;;;;;;8.80;6.13;;;15.70;99.90;;;;;;5043134;28;20038;-81
2023/04/29 07:43:30;;;;;;;7.18;6.47;;;16.00;99.90;;;;;;5045036;28;20045;-81
2023/04/29 07:45:55;;;;;;;9.18;6.85;;;16.20;99.90;;;;;;5057424;28;20048;-81
2023/04/29 07:48:21;;;;;;;9.90;6.85;;;16.90;99.90;;;;;;5038224;28;20033;-81
2023/04/29 07:50:47;;;;;;;8.77;6.55;;;16.60;99.90;;;;;;5039066;28;20053;-81
2023/04/29 07:53:14;;;;;;;9.63;6.82;;;16.70;99.90;;;;;;5039229;28;20044;-81
2023/04/29 07:55:40;;;;;;;9.93;6.60;;;16.80;99.90;;;;;;5039215;28;20052;-81
2023/04/29 07:58:05;;;;;;;7.18;6.10;;;16.90;99.90;;;;;;5038154;28;20045;-81
2023/04/29 08:00:31;;;;;;;7.85;5.90;;;17.10;99.90;;;;;;5043230;28;20041;-81
2023/04/29 08:02:56;;;;;;;8.70;6.93;;;17.10;99.90;;;;;;5040360;28;20049;-81
2023/04/29 08:05:22;;;;;;;10.07;6.07;;;17.30;99.90;;;;;;5025724;28;20179;-81
2023/04/29 08:07:49;;;;;;;8.35;5.95;;;17.30;99.90;;;;;;5040478;28;20040;-81
2023/04/29 08:10:15;;;;;;;6.53;5.07;;;17.50;99.90;;;;;;5043199;28;20413;-81
2023/04/29 08:12:44;;;;;;;8.15;5.80;;;17.60;99.90;;;;;;5044017;28;20032;-81
2023/04/29 08:15:09;;;;;;;11.40;6.50;;;17.60;99.90;;;;;;5046165;28;20044;-81
2023/04/29 08:17:35;;;;;;;7.15;5.00;;;17.40;99.90;;;;;;5044020;28;20041;-81
2023/04/29 08:20:01;;;;;;;5.93;5.07;;;17.30;99.90;;;;;;5043118;28;20041;-82
2023/04/29 08:22:26;;;;;;;9.18;5.78;;;17.10;99.90;;;;;;5049073;28;20551;-81
2023/04/29 08:24:52;;;;;;;6.90;5.22;;;17.00;99.90;;;;;;5060829;28;20072;-81
2023/04/29 08:27:18;;;;;;;9.32;6.00;;;16.90;99.90;;;;;;5045092;28;20071;-81
2023/04/29 08:29:44;;;;;;;9.60;5.72;;;16.60;99.90;;;;;;5042206;28;20037;-81
2023/04/29 08:32:09;;;;;;;6.88;5.63;;;16.90;99.90;;;;;;5043756;28;20067;-81
2023/04/29 08:34:36;;;;;;;8.00;5.40;;;17.00;99.90;;;;;;5045109;28;20114;-82
2023/04/29 08:37:02;;;;;;;7.30;5.15;;;16.90;99.90;;;;;;5040717;28;20140;-81
2023/04/29 08:39:29;;;;;;;8.52;5.85;;;16.90;99.90;;;;;;5045090;28;20479;-81
2023/04/29 08:41:56;;;;;;;10.27;5.63;;;17.10;99.90;;;;;;5040679;28;20045;-81
2023/04/29 08:44:22;;;;;;;9.80;5.93;;;17.10;99.90;;;;;;5074900;28;20045;-81
2023/04/29 08:46:48;;;;;;;6.55;5.45;;;17.20;99.90;;;;;;5043660;28;20079;-81
2023/04/29 08:49:14;;;;;;;8.05;5.47;;;17.60;99.90;;;;;;5042911;28;20048;-81
2023/04/29 08:51:40;;;;;;;7.25;4.88;;;18.00;99.90;;;;;;5040361;28;20033;-81
2023/04/29 08:54:06;;;;;;;13.70;5.30;;;18.10;99.90;;;;;;5043181;28;20083;-81
2023/04/29 08:56:32;;;;;;;6.95;4.68;;;17.90;99.90;;;;;;5041582;28;20033;-81
2023/04/29 08:59:00;;;;;;;7.97;4.70;;;17.60;99.90;;;;;;5059639;28;20048;-81
2023/04/29 09:01:29;;;;;;;9.63;4.40;;;17.50;99.90;;;;;;5044562;28;20063;-81
2023/04/29 09:04:40;;;;;;;7.28;4.95;;;17.20;99.90;;;;;;5058400;28;20514;-81
2023/04/29 09:07:06;;;;;;;8.20;4.90;;;17.40;99.90;;;;;;5014140;28;20610;-81
2023/04/29 09:09:32;;;;;;;10.05;4.95;;;17.40;99.90;;;;;;5008288;28;20104;-81
2023/04/29 09:11:57;;;;;;;7.85;4.38;;;17.20;99.90;;;;;;5019452;28;20230;-80
2023/04/29 09:14:24;;;;;;;7.78;4.50;;;17.00;99.90;;;;;;5042205;28;20498;-81
2023/04/29 09:16:50;;;;;;;7.72;4.45;;;16.80;99.90;;;;;;5044494;28;20040;-82
2023/04/29 09:19:30;;;;;;;11.23;4.32;;;16.90;99.90;;;;;;5041546;28;20052;-81
2023/04/29 09:21:56;;;;;;;5.28;4.20;;;17.10;99.90;;;;;;5041877;28;20664;-81
2023/04/29 09:24:30;;;;;;;6.90;4.63;;;17.30;99.90;;;;;;5058771;28;20128;-81
2023/04/29 09:26:57;;;;;;;8.02;4.75;;;17.20;99.90;;;;;;5045376;28;20120;-83
2023/04/29 09:29:23;;;;;;;7.35;3.97;;;17.20;99.90;;;;;;5043094;28;20062;-84
2023/04/29 09:31:50;;;;;;;5.68;4.05;;;17.30;99.90;;;;;;5044268;28;20446;-82
2023/04/29 09:34:16;;;;;;;7.10;4.30;;;17.50;99.90;;;;;;5044527;28;20056;-81
2023/04/29 09:36:45;;;;;;;4.95;4.03;;;17.50;99.90;;;;;;5059219;28;20917;-82
2023/04/29 09:39:17;;;;;;;5.95;4.25;;;17.40;99.90;;;;;;5042451;28;20515;-83
2023/04/29 09:41:51;;;;;;;9.60;4.57;;;17.00;99.90;;;;;;5045008;28;20083;-82
2023/04/29 09:44:18;;;;;;;5.90;4.67;;;16.80;99.90;;;;;;5042427;28;20978;-80
2023/04/29 09:46:58;;;;;;;6.45;4.10;;;16.90;99.90;;;;;;5046268;28;20538;-84
2023/04/29 09:49:44;;;;;;;8.20;4.53;;;16.80;99.90;;;;;;5048947;28;20475;-83
2023/04/29 09:52:13;;;;;;;5.65;4.28;;;16.80;99.90;;;;;;5043225;28;20132;-81
2023/04/29 09:54:40;;;;;;;6.43;4.32;;;17.10;99.90;;;;;;5072049;28;20080;-82
2023/04/29 09:57:08;;;;;;;5.38;4.38;;;17.40;99.90;;;;;;5035744;28;20177;-82
2023/04/29 09:59:35;;;;;;;8.85;4.03;;;17.50;99.90;;;;;;5036188;28;21169;-82
2023/04/29 10:02:06;;;;;;;7.32;4.53;;;17.80;99.90;;;;;;5041461;28;20049;-81
2023/04/29 10:04:34;;;;;;;5.57;3.95;;;17.90;99.90;;;;;;5057279;28;20432;-81
2023/04/29 10:07:01;;;;;;;6.88;4.57;;;17.90;99.90;;;;;;5040935;28;20052;-82
2023/04/29 10:09:27;;;;;;;7.25;4.13;;;18.00;99.90;;;;;;5042347;28;20044;-81
2023/04/29 10:11:53;;;;;;;8.43;5.03;;;18.10;99.90;;;;;;5040479;28;20049;-82
2023/04/29 10:14:21;;;;;;;6.40;4.57;;;17.80;99.90;;;;;;5043651;28;20048;-84
2023/04/29 10:16:49;;;;;;;9.07;4.50;;;17.80;99.90;;;;;;5041526;28;20112;-83
2023/04/29 10:19:21;;;;;;;7.88;4.75;;;17.80;99.90;;;;;;5045858;28;20052;-84
2023/04/29 10:21:48;;;;;;;6.07;5.03;;;17.80;99.90;;;;;;5075498;28;20056;-82
2023/04/29 10:24:16;;;;;;;5.20;4.70;;;17.50;99.90;;;;;;5067557;28;20048;-83
2023/04/29 10:26:43;;;;;;;5.47;4.15;;;17.80;99.90;;;;;;5040643;28;20049;-83
2023/04/29 10:29:10;;;;;;;7.47;4.57;;;17.40;99.90;;;;;;5049397;28;20041;-84
2023/04/29 10:31:38;;;;;;;5.93;4.00;;;17.20;99.90;;;;;;5047242;28;20049;-83
2023/04/29 10:34:04;;;;;;;4.82;3.83;;;17.40;99.90;;;;;;5081645;28;20033;-83
2023/04/29 10:36:30;;;;;;;9.50;4.20;;;17.50;99.90;;;;;;5051368;28;20039;-84
2023/04/29 10:39:00;;;;;;;3.50;3.15;;;17.50;99.90;;;;;;5060198;28;20506;-84
2023/04/29 10:41:30;;;;;;;5.57;3.33;;;17.40;99.90;;;;;;5044444;28;20036;-84
2023/04/29 10:43:58;;;;;;;8.77;4.03;;;17.60;99.90;;;;;;5030157;28;20069;-83
2023/04/29 10:46:25;;;;;;;5.10;3.40;;;17.50;99.90;;;;;;5035964;28;20087;-84
2023/04/29 10:49:05;;;;;;;4.53;3.20;;;17.30;99.90;;;;;;5055586;28;20475;-84
2023/04/29 10:51:43;;;;;;;5.85;4.07;;;17.10;99.90;;;;;;5056310;28;20547;-83
2023/04/29 10:54:11;;;;;;;4.63;3.55;;;17.30;99.90;;;;;;5040473;28;20037;-83
2023/04/29 10:56:46;;;;;;;5.95;3.30;;;17.40;99.90;;;;;;5057643;28;20041;-84
2023/04/29 10:59:13;;;;;;;6.82;3.60;;;17.30;99.90;;;;;;5046319;28;20048;-84
2023/04/29 11:01:43;;;;;;;4.47;3.67;;;17.30;99.90;;;;;;5044708;28;20045;-83
2023/04/29 11:04:10;;;;;;;6.35;3.72;;;17.40;99.90;;;;;;5031835;28;20518;-84
2023/04/29 11:06:43;;;;;;;5.80;3.70;;;17.60;99.90;;;;;;5054588;28;20056;-85
2023/04/29 11:09:18;;;;;;;8.27;3.45;;;17.70;99.90;;;;;;5059401;28;20046;-84
2023/04/29 11:12:02;;;;;;;5.78;3.55;;;17.80;99.90;;;;;;5034012;28;20038;-84
2023/04/29 11:14:48;;;;;;;8.30;3.92;;;18.00;99.90;;;;;;5041089;28;20044;-85
2023/04/29 11:17:14;;;;;;;;;;;18.10;99.90;;;;;;5040611;28;20075;-85
2023/04/29 11:19:50;;;;;;;5.95;3.95;;;18.00;99.90;;;;;;5039767;28;20438;-84
2023/04/29 11:22:22;;;;;;;4.85;3.20;;;17.90;99.90;;;;;;5040951;28;20048;-83
2023/04/29 11:25:08;;;;;;;6.88;3.13;;;17.50;99.90;;;;;;5041514;28;20461;-84
2023/04/29 11:27:34;;;;;;;6.13;3.67;;;17.70;99.90;;;;;;5040172;28;20049;-81
2023/04/29 11:30:02;;;;;;;5.85;3.10;;;17.80;99.90;;;;;;5044572;28;20534;-81
2023/04/29 11:32:30;;;;;;;3.67;2.67;;;17.80;99.90;;;;;;5041978;28;20045;-81
2023/04/29 11:35:16;;;;;;;7.93;3.78;;;17.80;99.90;;;;;;5043758;28;20033;-83
2023/04/29 11:37:44;;;;;;;6.10;2.95;;;17.80;99.90;;;;;;5040159;28;20078;-82
2023/04/29 11:40:12;;;;;;;9.32;3.45;;;18.00;99.90;;;;;;5043868;28;20488;-82
2023/04/29 11:42:43;;;;;;;7.00;3.15;;;18.10;99.90;;;;;;5038223;28;20047;-83
2023/04/29 11:45:09;;;;;;;6.00;3.42;;;18.30;99.90;;;;;;5060491;28;20045;-82
2023/04/29 11:47:34;;;;;;;5.38;3.08;;;18.40;99.90;;;;;;5044346;28;20067;-82
2023/04/29 11:50:09;;;;;;;4.75;2.95;;;18.50;99.90;;;;;;5048287;28;20073;-83
2023/04/29 11:52:36;;;;;;;7.82;2.83;;;18.70;99.90;;;;;;5045234;28;20116;-82
2023/04/29 11:55:03;;;;;;;4.45;3.45;;;18.70;99.90;;;;;;5044436;28;20049;-82
2023/04/29 11:57:29;;;;;;;6.22;2.88;;;18.20;99.90;;;;;;5046925;28;20443;-82
2023/04/29 11:59:56;;;;;;;7.13;2.72;;;17.80;99.90;;;;;;5044127;28;20120;-82
2023/04/29 12:02:22;;;;;;;6.68;3.33;;;17.70;99.90;;;;;;5045107;28;20045;-82
2023/04/29 12:04:48;;;;;;;5.70;2.72;;;17.90;99.90;;;;;;5043518;28;20115;-82
2023/04/29 12:07:18;;;;;;;4.82;2.95;;;17.70;99.90;;;;;;5043906;28;20052;-83
2023/04/29 12:09:44;;;;;;;3.65;2.88;;;17.90;99.90;;;;;;5045013;28;20549;-83
2023/04/29 12:12:10;;;;;;;8.25;3.08;;;17.70;99.90;;;;;;5042837;28;20192;-82
2023/04/29 12:14:36;;;;;;;5.43;2.72;;;17.60;99.90;;;;;;5065161;28;20064;-82
2023/04/29 12:17:03;;;;;;;5.15;2.50;;;17.60;99.90;;;;;;5043521;28;20056;-83
2023/04/29 12:19:28;;;;;;;7.25;2.72;;;17.70;99.90;;;;;;5075478;28;20037;-84
2023/04/29 12:21:58;;;;;;;6.22;2.17;;;17.80;99.90;;;;;;5039098;28;20079;-82
2023/04/29 12:24:24;;;;;;;4.55;2.03;;;17.90;99.90;;;;;;5045267;28;20454;-84
2023/04/29 12:26:49;;;;;;;3.10;1.73;;;18.00;99.90;;;;;;5044275;28;20167;-83
2023/04/29 12:29:15;;;;;;;3.75;1.75;;;18.10;99.90;;;;;;5043760;28;20036;-84
2023/04/29 12:31:42;;;;;;;3.00;1.80;;;18.20;99.90;;;;;;5044041;28;20472;-83
2023/04/29 12:34:08;;;;;;;4.63;1.45;;;18.30;99.90;;;;;;5045018;28;20045;-83
2023/04/29 12:36:33;;;;;;;4.25;1.73;;;18.30;99.90;;;;;;5045406;28;20423;-83
2023/04/29 12:39:00;;;;;;;2.40;1.45;;;18.40;99.90;;;;;;5044558;28;20029;-83
2023/04/29 12:41:40;;;;;;;3.97;1.70;;;18.40;99.90;;;;;;5043848;28;20049;-82
2023/04/29 12:44:06;;;;;;;2.92;1.95;;;18.20;99.10;;;;;;5044435;28;20190;-82